Metar Cercanos

 

LEPA - Palma De Mallorc, Spain
Distance from station: ONO 38km
Actualización: 24/10/2018 00:30
Despejado
Despejado
 Viento del calm
Viento: Calma
Temperatura: 12°C
Rocío: 11°C
Humedad: 94%
Barómetro: 1024 hPa
Resumen: Despejado
Visibility: greater than 10 km
2018/10/23 22:30 LEPA 232230Z 00000KT CAVOK 12/11 Q1024 NOSIG
LEMH - Mahon/Menorca Is, Spain
Distance from station: ENE 105km
Actualización: 24/10/2018 00:30
Despejado
Despejado
 Viento del NO
Viento: NO 7 km/h
Temperatura: 15°C
Rocío: 12°C
Humedad: 82%
Barómetro: 1023 hPa
Resumen: Despejado
Visibility: greater than 10 km
2018/10/23 22:30 LEMH 232230Z 31004KT CAVOK 15/12 Q1023
 
LEIB - Ibiza/Es Codola, Spain
Distance from station: OSO 165km
Actualización: 24/10/2018 00:30
Despejado
Despejado
 Viento del varies
Viento: varies 4 km/h
Temperatura: 16°C
Rocío: 14°C
Humedad: 88%
Barómetro: 1025 hPa
Resumen: Despejado
Visibility: greater than 10 km
2018/10/23 22:30 LEIB 232230Z VRB02KT CAVOK 16/14 Q1025 NOSIG
LEBL - Barcelona Airpor, Spain
Distance from station: NNO 225km
Actualización: 24/10/2018 00:30
Despejado
Despejado
 Viento del NO
Viento: NO 19 km/h
Temperatura: 16°C
Rocío: 10°C
Humedad: 68%
Barómetro: 1024 hPa
Resumen: Despejado
Visibility: greater than 10 km
2018/10/23 22:30 LEBL 232230Z 32010KT 290V350 CAVOK 16/10 Q1024 NOSIG
 
LEVC - Valencia (civ/Mi, Spain
Distance from station: NO 188km
Actualización: 24/10/2018 00:30
Parcialmente nuboso
Parcialmente nuboso
 Viento del ONO
Viento: ONO 6 km/h
Temperatura: 19°C
Rocío: 17°C
Humedad: 88%
Barómetro: 1026 hPa
Clouds: Parcialmente nuboso
Visibility: 10 km
Cloud details: Few Clouds 610 m
Parcialmente nuboso 914 m
2018/10/23 22:30 LEVC 232230Z 29003KT 9999 FEW020 SCT030 19/17 Q1026 NOSIG
LEGE - Gerona/Costa Bra, Spain
Distance from station: N 276km
Actualización: 24/10/2018 00:30
Few Clouds
Few Clouds
 Viento del calm
Viento: Calma
Temperatura: 11°C
Rocío: 11°C
Humedad: 100%
Barómetro: 1024 hPa
Clouds: Few Clouds
Visibility: 10 km
Cloud details: Few Clouds 1524 m
2018/10/23 22:30 LEGE 232230Z 00000KT 9999 FEW050 11/11 Q1024
 
LEAL - Alicante/El Alte, Spain
Distance from station: OSO 344km
Actualización: 24/10/2018 00:30
Few Clouds
Few Clouds
 Viento del ONO
Viento: ONO 7 km/h
Temperatura: 17°C
Rocío: 14°C
Humedad: 83%
Barómetro: 1026 hPa
Clouds: Few Clouds
Visibility: 10 km
Cloud details: Few Clouds 853 m
2018/10/23 22:30 LEAL 232230Z 29004KT 9999 FEW028 17/14 Q1026 NOSIG
LEAM - Almeria Airport, Spain
Distance from station: SSO 56km
Actualización: 24/10/2018 00:30
Despejado
Despejado
 Viento del N
Viento: N 9 km/h
Temperatura: 19°C
Rocío: 15°C
Humedad: 78%
Barómetro: 1025 hPa
Clouds: Despejado
Visibility: 10 km
2018/10/23 22:30 LEAM 232230Z AUTO 35005KT 9999 NCD 19/15 Q1025
 
LEZG - Zaragoza (mil/Ci, Spain
Distance from station: NO 431km
Actualización: 24/10/2018 00:30
Despejado
Despejado
 Viento del O
Viento: O 24 km/h
Temperatura: 14°C
Rocío: 7°C
Humedad: 63%
Barómetro: 1027 hPa
Resumen: Despejado
Visibility: greater than 10 km
2018/10/23 22:30 LEZG 232230Z 28013KT CAVOK 14/07 Q1027
LEMD - Madrid/Barajas, Spain
Distance from station: ONO 234km
Actualización: 24/10/2018 00:30
Despejado
Despejado
 Viento del NNE
Viento: NNE 6 km/h
Temperatura: 13°C
Rocío: 12°C
Humedad: 94%
Barómetro: 1027 hPa
Resumen: Despejado
Visibility: greater than 10 km
2018/10/23 22:30 LEMD 232230Z 02003KT 360V060 CAVOK 13/12 Q1027 NOSIG
 
LEGR - Granada Airport, Spain
Distance from station: OSO 62km
Actualización: 24/10/2018 00:30
Despejado
Despejado
 Viento del varies
Viento: varies 2 km/h
Temperatura: 13°C
Rocío: 12°C
Humedad: 94%
Barómetro: 1027 hPa
Clouds: Despejado
Visibility: 10 km
2018/10/23 22:30 LEGR 232230Z AUTO VRB01KT 9999 NCD 13/12 Q1027
LEMG - Malaga (civ/Mil), Spain
Distance from station: OSO 227km
Actualización: 24/10/2018 00:30
Muy nuboso
Muy nuboso
 Viento del SSE
Viento: SSE 2 km/h
Temperatura: 20°C
Rocío: 18°C
Humedad: 88%
Barómetro: 1026 hPa
Clouds: Muy nuboso
Visibility: 10 km
Cloud details: Few Clouds 762 m
Muy nuboso 1006 m
2018/10/23 22:30 LEMG 232230Z 16001KT 9999 FEW025 BKN033 20/18 Q1026 NOSIG
 
LEZL - Sevilla (civ/Mil, Spain
Distance from station: S 318km
Actualización: 24/10/2018 00:30
Despejado
Despejado
 Viento del ESE
Viento: ESE 4 km/h
Temperatura: 19°C
Rocío: 17°C
Humedad: 88%
Barómetro: 1024 hPa
Resumen: Despejado
Visibility: greater than 10 km
2018/10/23 22:30 LEZL 232230Z 12002KT CAVOK 19/17 Q1024 NOSIG
LEVT - Vitoria, Spain
Distance from station: NO 226km
Actualización: 24/10/2018 00:30
Parcialmente nuboso
Parcialmente nuboso
 Viento del O
Viento: O 4 km/h
Temperatura: 6°C
Rocío: 5°C
Humedad: 93%
Barómetro: 1031 hPa
Clouds: Parcialmente nuboso
Visibility: 7 km
Cloud details: Parcialmente nuboso 457 m
2018/10/23 22:30 LEVT 232230Z 26002KT 7000 SCT015 06/05 Q1031
 
LEBB - Bilbao/Sondica, Spain
Distance from station: NNO 235km
Actualización: 24/10/2018 00:30
Parcialmente nuboso
Parcialmente nuboso
 Viento del varies
Viento: varies 4 km/h
Temperatura: 12°C
Rocío: 11°C
Humedad: 94%
Barómetro: 1032 hPa
Clouds: Parcialmente nuboso
Visibility: 10 km
Cloud details: Parcialmente nuboso 792 m
2018/10/23 22:30 LEBB 232230Z AUTO VRB02KT 9999 SCT026/// 12/11 Q1032
LESO - San Sebastian/Fu, Spain
Distance from station: N 231km
Actualización: 24/10/2018 00:30
Despejado
Despejado
 Viento del S
Viento: S 6 km/h
Temperatura: 11°C
Rocío: 10°C
Humedad: 94%
Barómetro: 1031 hPa
Clouds: Despejado
Visibility: 10 km
2018/10/23 22:30 LESO 232230Z AUTO 19003KT 160V230 9999 NCD 11/10 Q1031
 
LEVD - Valladolid(Mil/C, Spain
Distance from station: ONO 239km
Actualización: 23/10/2018 21:30
NOT Current
Despejado
Despejado
 Viento del NE
Viento: NE 17 km/h
Temperatura: 12°C
Rocío: 3°C
Humedad: 54%
Barómetro: 1028 hPa
Resumen: Despejado
Visibility: greater than 10 km
2018/10/23 19:30 LEVD 231930Z 04009KT CAVOK 12/03 Q1028
LESA - Salamanca (civ/M, Spain
Distance from station: ONO 349km
Actualización: 24/10/2018 00:30
Despejado
Despejado
 Viento del N
Viento: N 6 km/h
Temperatura: 7°C
Rocío: 5°C
Humedad: 87%
Barómetro: 1029 hPa
Clouds: Despejado
Visibility: 10 km
2018/10/23 22:30 LESA 232230Z AUTO 01003KT 9999 NCD 07/05 Q1029
 
LEXJ - Santander/Paraya, Spain
Distance from station: NNO 247km
Actualización: 24/10/2018 00:30
Mist, Few clouds
Mist, Few clouds
 Viento del S
Viento: S 4 km/h
Temperatura: 11°C
Rocío: 11°C
Humedad: 100%
Barómetro: 1031 hPa
Resumen: Mist
Clouds: Few Clouds
Visibility: 3 km
Cloud details: Few Clouds 671 m
2018/10/23 22:30 LEXJ 232230Z AUTO 17002KT 3100 BR FEW022/// 11/11 Q1031
LEAS - Asturias/Aviles, Spain
Distance from station: NO 214km
Actualización: 24/10/2018 00:30
Despejado
Despejado
 Viento del E
Viento: E 13 km/h
Temperatura: 13°C
Rocío: 11°C
Humedad: 88%
Barómetro: 1031 hPa
Clouds: Despejado
Visibility: 10 km
2018/10/23 22:30 LEAS 232230Z AUTO 09007KT 9999 NCD 13/11 Q1031
 
LECO - La Coruna/Alvedr, Spain
Distance from station: ONO 222km
Actualización: 24/10/2018 00:30
Despejado
Despejado
 Viento del S
Viento: S 11 km/h
Temperatura: 13°C
Rocío: 11°C
Humedad: 88%
Barómetro: 1028 hPa
Resumen: Despejado
Visibility: greater than 10 km
2018/10/23 22:30 LECO 232230Z 17006KT CAVOK 13/11 Q1028
LEVX - Vigo/Peinador, Spain
Distance from station: O 214km
Actualización: 24/10/2018 00:30
Despejado
Despejado
 Viento del OSO
Viento: OSO 9 km/h
Temperatura: 18°C
Rocío: 11°C
Humedad: 64%
Barómetro: 1026 hPa
Resumen: Despejado
Visibility: greater than 10 km
2018/10/23 22:30 LEVX 232230Z 24005KT 210V290 CAVOK 18/11 Q1026 NOSIG